Time;durP1;ratioP1;P1;durP2;ratioP2;P2;SDS_P1;SDS_P2;PMS_P1;PMS_P2;Temp;Humidity;BMP_temperature;BMP_pressure;BME280_temperature;BME280_humidity;BME280_pressure;Samples;Min_cycle;Max_cycle;Signal;HPM_P1;HPM_P2
2023/07/10 00:02:28;;;;;;;12.50;3.90;;;;;;;17.46;64.58;100641.80;110161;1273;22228;-59
2023/07/10 00:04:58;;;;;;;9.70;3.50;;;;;;;17.43;64.72;100644.59;110155;1279;22188;-59
2023/07/10 00:07:29;;;;;;;15.90;3.40;;;;;;;17.37;64.75;100645.63;110094;1267;22169;-59
2023/07/10 00:10:00;;;;;;;9.50;3.10;;;;;;;17.30;65.10;100645.64;110105;1273;23267;-59
2023/07/10 00:12:31;;;;;;;14.30;3.50;;;;;;;17.28;65.17;100651.48;110111;1273;22186;-59
2023/07/10 00:15:02;;;;;;;12.20;3.80;;;;;;;17.25;65.33;100648.41;110119;1272;22331;-59
2023/07/10 00:17:33;;;;;;;16.60;4.50;;;;;;;17.21;65.45;100644.42;110143;1272;22259;-59
2023/07/10 00:20:09;;;;;;;15.30;4.00;;;;;;;17.17;65.46;100641.15;110132;1279;22459;-59
2023/07/10 00:22:40;;;;;;;11.80;3.80;;;;;;;17.14;65.47;100637.45;110118;1279;22949;-59
2023/07/10 00:25:15;;;;;;;13.30;4.00;;;;;;;17.11;65.73;100637.15;110115;1272;22220;-59
2023/07/10 00:27:47;;;;;;;13.80;3.80;;;;;;;17.10;65.87;100634.84;110117;1269;23057;-59
2023/07/10 00:30:20;;;;;;;14.30;3.80;;;;;;;17.07;66.13;100634.33;110120;1269;22344;-59
2023/07/10 00:32:53;;;;;;;13.00;3.90;;;;;;;17.02;66.18;100636.76;110098;1272;22708;-59
2023/07/10 00:35:26;;;;;;;12.00;3.70;;;;;;;16.98;66.33;100635.42;110078;1273;22310;-58
2023/07/10 00:38:14;;;;;;;17.70;3.60;;;;;;;16.95;66.56;100633.79;110090;1273;22229;-59
2023/07/10 00:40:46;;;;;;;13.70;3.60;;;;;;;16.92;66.89;100630.65;110088;1273;22168;-59
2023/07/10 00:43:27;;;;;;;10.80;3.60;;;;;;;16.87;67.05;100628.81;110098;1272;22116;-59
2023/07/10 00:46:04;;;;;;;16.50;3.90;;;;;;;16.82;67.38;100629.85;109969;1272;22145;-59
2023/07/10 00:48:41;;;;;;;12.30;3.60;;;;;;;16.79;67.62;100629.13;110106;1272;22986;-59
2023/07/10 00:51:17;;;;;;;20.50;3.90;;;;;;;16.76;67.65;100626.35;110055;1272;22817;-57
2023/07/10 00:53:52;;;;;;;17.60;4.10;;;;;;;16.72;67.75;100624.86;110118;1273;22244;-58
2023/07/10 00:56:26;;;;;;;13.30;3.90;;;;;;;16.67;67.95;100624.24;110092;1272;22266;-59
2023/07/10 00:58:57;;;;;;;16.40;4.70;;;;;;;16.63;68.10;100626.41;110014;1279;22144;-59
2023/07/10 01:01:30;;;;;;;11.50;3.50;;;;;;;16.61;68.21;100624.25;110108;1272;22163;-59
2023/07/10 01:04:03;;;;;;;13.70;4.20;;;;;;;16.57;68.55;100620.30;110089;1272;22220;-59
2023/07/10 01:06:34;;;;;;;15.30;3.70;;;;;;;16.52;68.65;100619.38;110100;1269;22219;-58
2023/07/10 01:09:09;;;;;;;14.70;3.30;;;;;;;16.48;68.87;100617.24;110067;1272;22180;-59
2023/07/10 01:11:41;;;;;;;13.70;4.40;;;;;;;16.46;68.92;100618.11;110083;1272;22183;-59
2023/07/10 01:14:15;;;;;;;11.90;3.80;;;;;;;16.44;69.16;100616.16;110108;1273;22384;-59
2023/07/10 01:16:46;;;;;;;11.10;3.40;;;;;;;16.40;69.29;100609.29;110132;1279;22169;-58
2023/07/10 01:19:21;;;;;;;11.50;3.10;;;;;;;16.35;69.38;100610.72;110092;1272;23084;-58
2023/07/10 01:21:52;;;;;;;12.40;3.60;;;;;;;16.31;69.34;100610.96;110093;1272;22147;-59
2023/07/10 01:24:23;;;;;;;11.20;3.00;;;;;;;16.26;69.52;100608.96;110022;1269;22296;-58
2023/07/10 01:26:54;;;;;;;11.60;3.50;;;;;;;16.24;69.71;100611.73;110091;1272;22178;-58
2023/07/10 01:29:29;;;;;;;14.20;3.70;;;;;;;16.19;69.89;100607.96;110096;1272;22281;-59
2023/07/10 01:32:02;;;;;;;13.30;3.60;;;;;;;16.18;69.82;100613.81;110003;1278;22200;-58
2023/07/10 01:34:38;;;;;;;13.10;3.80;;;;;;;16.18;70.20;100611.77;110122;1279;22360;-59
2023/07/10 01:37:12;;;;;;;7.30;2.50;;;;;;;16.17;70.17;100608.12;110132;1269;22167;-59
2023/07/10 01:39:46;;;;;;;11.40;3.40;;;;;;;16.14;70.05;100609.64;110069;1269;22319;-59
2023/07/10 01:42:17;;;;;;;10.30;3.00;;;;;;;16.10;70.17;100608.27;110057;1275;22245;-58
2023/07/10 01:44:50;;;;;;;10.20;3.50;;;;;;;16.08;70.49;100606.61;110108;1266;22357;-59
2023/07/10 01:47:21;;;;;;;11.20;3.50;;;;;;;16.06;70.85;100604.77;110095;1267;23177;-59
2023/07/10 01:49:56;;;;;;;9.80;3.40;;;;;;;16.04;70.93;100610.86;110135;1272;22164;-58
2023/07/10 01:52:27;;;;;;;11.10;3.10;;;;;;;16.02;70.96;100608.76;110099;1272;22202;-59
2023/07/10 01:54:58;;;;;;;11.80;3.40;;;;;;;16.02;71.06;100607.78;110150;1273;22161;-59
2023/07/10 01:57:29;;;;;;;8.80;3.60;;;;;;;16.01;71.22;100604.35;110089;1272;23120;-59
2023/07/10 01:59:59;;;;;;;9.80;2.90;;;;;;;16.00;71.52;100604.77;110115;1276;22176;-58
2023/07/10 02:02:30;;;;;;;9.00;2.90;;;;;;;15.99;71.61;100604.19;110114;1265;22484;-59
2023/07/10 02:05:01;;;;;;;10.10;3.00;;;;;;;15.98;71.63;100601.52;110113;1279;22323;-58
2023/07/10 02:07:32;;;;;;;15.40;3.00;;;;;;;15.97;71.66;100592.49;110106;1272;22130;-58
2023/07/10 02:10:03;;;;;;;10.50;3.40;;;;;;;15.95;71.76;100588.30;110102;1267;22325;-59
2023/07/10 02:12:34;;;;;;;10.20;2.80;;;;;;;15.92;71.80;100581.29;110083;1272;22127;-59
2023/07/10 02:15:06;;;;;;;11.10;2.90;;;;;;;15.90;71.79;100588.40;110091;1272;22413;-59
2023/07/10 02:17:37;;;;;;;10.10;2.90;;;;;;;15.90;71.70;100585.59;110102;1272;22892;-58
2023/07/10 02:20:09;;;;;;;7.20;2.70;;;;;;;15.91;71.95;100584.56;110113;1266;22207;-59
2023/07/10 02:22:40;;;;;;;11.10;3.60;;;;;;;15.93;72.03;100581.48;110126;1279;22133;-59
2023/07/10 02:25:11;;;;;;;9.90;3.30;;;;;;;15.92;71.97;100576.21;110115;1272;22961;-59
2023/07/10 02:27:42;;;;;;;11.10;3.20;;;;;;;15.90;71.96;100581.59;110082;1265;23421;-59
2023/07/10 02:30:14;;;;;;;10.10;3.10;;;;;;;15.88;71.97;100585.27;110143;1272;22214;-59
2023/07/10 02:32:45;;;;;;;7.30;2.70;;;;;;;15.85;72.14;100582.70;110139;1272;22204;-60
2023/07/10 02:35:16;;;;;;;10.60;2.90;;;;;;;15.83;72.33;100581.41;110164;1273;22366;-59
2023/07/10 02:37:47;;;;;;;8.90;2.50;;;;;;;15.80;72.26;100586.88;110133;1279;22111;-59
2023/07/10 02:40:18;;;;;;;10.00;2.90;;;;;;;15.77;72.30;100584.09;110112;1274;23001;-58
2023/07/10 02:42:49;;;;;;;8.20;2.20;;;;;;;15.75;72.33;100587.38;110115;1264;22233;-59
2023/07/10 02:45:20;;;;;;;9.30;2.90;;;;;;;15.72;72.34;100590.58;110128;1272;22205;-60
2023/07/10 02:47:51;;;;;;;8.50;3.10;;;;;;;15.70;72.56;100593.04;110146;1269;22159;-59
2023/07/10 02:50:21;;;;;;;10.10;3.20;;;;;;;15.68;72.49;100592.36;110120;1266;22201;-60
2023/07/10 02:52:52;;;;;;;8.70;2.40;;;;;;;15.62;72.44;100596.94;110156;1279;22213;-59
2023/07/10 02:55:23;;;;;;;10.60;3.20;;;;;;;15.57;72.42;100595.33;110114;1267;22195;-58
2023/07/10 02:57:54;;;;;;;10.10;3.50;;;;;;;15.55;72.39;100591.39;110145;1272;23423;-60
2023/07/10 03:00:25;;;;;;;9.80;2.50;;;;;;;15.52;72.77;100590.34;110054;1272;22156;-59
2023/07/10 03:02:57;;;;;;;10.20;2.50;;;;;;;15.49;72.83;100591.92;110140;1274;22247;-59
2023/07/10 03:05:28;;;;;;;11.40;2.40;;;;;;;15.47;72.83;100595.02;110159;1266;22205;-58
2023/07/10 03:07:59;;;;;;;10.80;3.70;;;;;;;15.45;72.80;100595.33;110150;1279;22190;-59
2023/07/10 03:10:30;;;;;;;11.30;3.30;;;;;;;15.43;73.11;100595.36;110174;1272;22284;-59
2023/07/10 03:13:01;;;;;;;8.70;2.50;;;;;;;15.42;73.36;100598.76;110157;1272;22246;-59
2023/07/10 03:15:32;;;;;;;12.00;3.60;;;;;;;15.41;73.39;100589.91;110099;1272;22190;-59
2023/07/10 03:18:03;;;;;;;10.80;3.90;;;;;;;15.39;73.42;100590.88;110146;1267;22318;-59
2023/07/10 03:20:34;;;;;;;12.20;3.40;;;;;;;15.37;73.41;100590.04;110142;1269;22192;-59
2023/07/10 03:23:04;;;;;;;10.00;2.60;;;;;;;15.36;73.53;100589.59;110168;1273;22342;-59
2023/07/10 03:25:36;;;;;;;8.30;3.10;;;;;;;15.36;73.68;100588.24;110119;1279;22141;-59
2023/07/10 03:28:07;;;;;;;8.20;2.80;;;;;;;15.35;73.66;100589.27;110104;1269;22379;-59
2023/07/10 03:30:39;;;;;;;9.20;2.40;;;;;;;15.35;73.67;100588.71;110175;1269;22216;-59
2023/07/10 03:33:11;;;;;;;10.00;2.80;;;;;;;15.34;73.68;100584.31;110112;1272;22316;-59
2023/07/10 03:35:42;;;;;;;11.40;2.70;;;;;;;15.35;73.78;100586.88;110152;1272;22966;-59
2023/07/10 03:38:13;;;;;;;12.50;3.20;;;;;;;15.34;73.89;100589.46;110171;1263;22354;-58
2023/07/10 03:40:52;;;;;;;8.60;2.50;;;;;;;15.32;73.87;100592.38;110150;1275;22207;-59
2023/07/10 03:43:23;;;;;;;10.70;3.30;;;;;;;15.29;73.98;100595.73;110111;1268;22159;-60
2023/07/10 03:45:55;;;;;;;10.60;2.70;;;;;;;15.29;74.09;100601.15;110142;1272;23155;-58
2023/07/10 03:48:26;;;;;;;9.90;4.10;;;;;;;15.29;74.34;100597.52;110046;1272;22192;-59
2023/07/10 03:50:58;;;;;;;10.50;3.60;;;;;;;15.31;74.28;100593.35;110162;1267;23219;-58
2023/07/10 03:53:29;;;;;;;8.60;3.40;;;;;;;15.32;74.32;100592.36;110152;1263;22204;-60
2023/07/10 03:56:00;;;;;;;14.20;3.00;;;;;;;15.33;74.33;100589.16;110163;1272;22255;-59
2023/07/10 03:58:33;;;;;;;10.10;2.80;;;;;;;15.34;74.45;100584.00;110116;1260;22226;-59
2023/07/10 04:01:04;;;;;;;11.40;2.60;;;;;;;15.37;74.61;100579.40;110159;1272;22326;-59
2023/07/10 04:03:37;;;;;;;11.90;2.80;;;;;;;15.40;74.54;100574.55;110158;1272;22282;-59
2023/07/10 04:06:11;;;;;;;12.40;3.10;;;;;;;15.45;74.41;100567.85;110151;1263;22315;-59
2023/07/10 04:08:44;;;;;;;11.90;2.70;;;;;;;15.49;74.49;100572.19;110163;1275;22148;-60
2023/07/10 04:11:16;;;;;;;12.20;2.60;;;;;;;15.51;74.63;100570.70;110123;1273;22353;-59
2023/07/10 04:13:48;;;;;;;16.50;3.00;;;;;;;15.52;74.69;100568.91;110146;1279;22102;-59
2023/07/10 04:16:21;;;;;;;14.90;3.30;;;;;;;15.56;74.59;100569.20;110122;1268;22231;-59
2023/07/10 04:18:53;;;;;;;11.20;3.30;;;;;;;15.58;74.71;100569.45;110126;1269;23377;-59
2023/07/10 04:21:26;;;;;;;12.70;3.70;;;;;;;15.60;74.79;100568.90;110063;1269;22207;-60
2023/07/10 04:23:58;;;;;;;9.30;2.60;;;;;;;15.62;74.74;100566.60;110166;1263;22152;-59
2023/07/10 04:26:30;;;;;;;8.30;2.40;;;;;;;15.63;74.86;100565.17;110173;1266;22946;-59
2023/07/10 04:29:04;;;;;;;10.80;2.60;;;;;;;15.65;74.79;100559.34;110118;1273;22299;-59
2023/07/10 04:31:36;;;;;;;12.70;2.60;;;;;;;15.69;74.66;100559.35;110127;1272;22202;-60
2023/07/10 04:34:07;;;;;;;13.60;2.50;;;;;;;15.74;74.38;100556.87;110099;1272;22172;-60
2023/07/10 04:36:37;;;;;;;10.80;2.90;;;;;;;15.82;74.55;100563.66;110094;1272;22848;-59
2023/07/10 04:39:08;;;;;;;12.00;2.70;;;;;;;15.91;74.35;100564.70;110046;1269;22244;-59
2023/07/10 04:41:40;;;;;;;13.90;2.80;;;;;;;16.01;74.14;100564.98;110093;1272;23375;-59
2023/07/10 04:44:11;;;;;;;8.80;2.80;;;;;;;16.11;74.21;100563.61;110127;1265;22440;-59
2023/07/10 04:46:42;;;;;;;10.60;2.40;;;;;;;16.22;74.01;100563.32;110110;1279;22929;-59
2023/07/10 04:49:12;;;;;;;10.70;2.50;;;;;;;16.34;73.71;100562.45;110120;1272;22220;-59
2023/07/10 04:51:43;;;;;;;10.40;3.30;;;;;;;16.44;73.69;100569.58;110109;1272;22376;-59
2023/07/10 04:54:14;;;;;;;13.90;3.30;;;;;;;16.52;73.74;100572.43;110072;1269;22174;-60
2023/07/10 04:56:46;;;;;;;11.40;3.00;;;;;;;16.62;74.01;100573.92;110085;1272;22212;-60
2023/07/10 04:59:17;;;;;;;10.60;2.90;;;;;;;16.71;74.04;100576.27;110126;1272;22311;-60
2023/07/10 05:01:48;;;;;;;8.70;3.50;;;;;;;16.81;73.77;100576.11;110114;1279;22162;-58
2023/07/10 05:04:19;;;;;;;15.80;3.10;;;;;;;16.95;73.82;100573.78;110096;1272;23046;-60
2023/07/10 05:06:51;;;;;;;13.70;3.00;;;;;;;17.09;73.67;100573.14;110108;1272;22276;-60
2023/07/10 05:09:22;;;;;;;11.60;3.00;;;;;;;17.25;73.86;100574.53;110055;1272;22182;-60
2023/07/10 05:11:53;;;;;;;13.90;3.90;;;;;;;17.42;73.78;100582.23;110102;1272;22335;-59
2023/07/10 05:14:25;;;;;;;11.30;4.10;;;;;;;17.60;73.29;100589.89;110101;1273;22154;-60
2023/07/10 05:16:56;;;;;;;14.30;4.00;;;;;;;17.76;73.16;100588.59;110150;1279;22242;-59
2023/07/10 05:19:32;;;;;;;13.10;4.70;;;;;;;17.95;72.94;100587.89;110111;1276;22173;-59
2023/07/10 05:22:03;;;;;;;14.10;4.60;;;;;;;18.15;72.78;100586.22;110136;1265;22285;-60
2023/07/10 05:24:34;;;;;;;11.90;4.20;;;;;;;18.37;72.37;100579.08;110112;1272;22237;-60
2023/07/10 05:27:05;;;;;;;13.20;5.00;;;;;;;18.55;72.00;100579.79;110072;1275;22348;-60
2023/07/10 05:29:36;;;;;;;14.00;5.30;;;;;;;18.68;71.57;100576.65;110149;1276;22936;-60
2023/07/10 05:32:09;;;;;;;12.80;4.80;;;;;;;18.80;71.50;100572.12;110156;1272;22946;-60
2023/07/10 05:34:40;;;;;;;12.10;4.40;;;;;;;18.91;71.55;100568.63;110120;1279;22305;-60
2023/07/10 05:37:11;;;;;;;14.30;4.70;;;;;;;19.01;71.49;100567.91;110131;1272;22186;-60
2023/07/10 05:39:42;;;;;;;16.70;5.40;;;;;;;19.09;71.18;100573.28;110073;1272;22162;-60
2023/07/10 05:42:13;;;;;;;19.80;6.00;;;;;;;19.18;70.93;100577.46;110121;1276;22286;-60
2023/07/10 05:44:44;;;;;;;16.80;5.10;;;;;;;19.26;70.56;100570.88;110158;1272;22190;-60
2023/07/10 05:47:16;;;;;;;18.30;5.90;;;;;;;19.33;70.64;100566.91;110165;1272;22724;-60
2023/07/10 05:49:46;;;;;;;16.00;6.20;;;;;;;19.40;70.23;100561.45;110150;1271;22185;-60
2023/07/10 05:52:17;;;;;;;15.80;5.60;;;;;;;19.47;70.42;100562.84;110131;1272;22765;-60
2023/07/10 05:54:48;;;;;;;18.70;5.40;;;;;;;19.54;70.21;100558.23;110140;1267;22214;-60
2023/07/10 05:57:19;;;;;;;13.90;5.50;;;;;;;19.62;70.05;100549.63;110147;1272;22714;-59
2023/07/10 05:59:50;;;;;;;16.70;6.20;;;;;;;19.71;69.93;100548.31;110134;1272;22163;-60
2023/07/10 06:02:21;;;;;;;14.20;5.60;;;;;;;19.81;69.58;100557.57;110162;1265;23258;-60
2023/07/10 06:04:52;;;;;;;11.50;5.50;;;;;;;19.91;69.37;100549.09;110188;1279;23389;-60
2023/07/10 06:07:23;;;;;;;13.60;5.80;;;;;;;20.02;69.11;100550.27;110137;1265;22156;-59
2023/07/10 06:09:54;;;;;;;16.40;5.70;;;;;;;20.17;68.81;100549.18;110149;1266;22172;-60
2023/07/10 06:12:25;;;;;;;16.30;6.00;;;;;;;20.31;68.64;100545.98;110066;1269;22225;-60
2023/07/10 06:14:56;;;;;;;19.20;6.00;;;;;;;20.41;68.15;100544.16;110141;1267;22948;-60
2023/07/10 06:17:26;;;;;;;13.50;5.60;;;;;;;20.50;68.18;100545.27;110095;1272;22256;-60
2023/07/10 06:19:57;;;;;;;12.70;5.80;;;;;;;20.58;68.13;100541.09;110197;1279;22191;-60
2023/07/10 06:22:28;;;;;;;13.00;5.80;;;;;;;20.65;67.78;100534.67;110151;1272;22289;-60
2023/07/10 06:24:59;;;;;;;13.70;6.10;;;;;;;20.70;67.61;100530.17;110168;1269;22679;-60
2023/07/10 06:27:30;;;;;;;14.00;6.30;;;;;;;20.73;67.37;100532.28;110162;1276;22922;-60
2023/07/10 06:30:02;;;;;;;13.20;5.20;;;;;;;20.76;67.38;100530.73;106000;1272;5426460;-61
2023/07/10 06:32:34;;;;;;;16.60;6.10;;;;;;;20.81;67.31;100529.41;110106;1272;22445;-60
2023/07/10 06:35:06;;;;;;;15.80;5.20;;;;;;;20.85;67.18;100526.86;110072;1272;22325;-60
2023/07/10 06:37:37;;;;;;;20.80;6.60;;;;;;;20.88;66.98;100527.73;110078;1272;23023;-60
2023/07/10 06:40:11;;;;;;;17.30;6.70;;;;;;;20.91;66.80;100539.38;110077;1272;22179;-60
2023/07/10 06:42:42;;;;;;;15.90;5.40;;;;;;;20.94;66.58;100538.70;110059;1272;22893;-60
2023/07/10 06:45:14;;;;;;;13.90;5.70;;;;;;;20.96;66.42;100538.09;110129;1272;22180;-60
2023/07/10 06:47:47;;;;;;;14.30;5.70;;;;;;;21.00;66.22;100539.84;110110;1272;23022;-60
2023/07/10 06:50:18;;;;;;;16.20;5.30;;;;;;;21.01;66.01;100546.41;110059;1272;22368;-60
2023/07/10 06:52:49;;;;;;;15.80;5.90;;;;;;;21.04;65.91;100543.05;110045;1275;22867;-60
2023/07/10 06:55:20;;;;;;;14.40;5.60;;;;;;;21.06;65.77;100544.77;110077;1272;22247;-60
2023/07/10 06:57:51;;;;;;;15.90;6.30;;;;;;;21.07;65.78;100539.30;110070;1273;22197;-59
2023/07/10 07:00:23;;;;;;;14.50;5.80;;;;;;;21.11;65.76;100548.83;110050;1272;23191;-60
2023/07/10 07:02:54;;;;;;;15.10;5.20;;;;;;;21.16;65.61;100554.13;110057;1272;22333;-60
2023/07/10 07:05:25;;;;;;;16.10;6.10;;;;;;;21.21;65.53;100556.09;110071;1272;22348;-59
2023/07/10 07:07:56;;;;;;;16.10;6.30;;;;;;;21.27;65.40;100555.03;110078;1275;22307;-60
2023/07/10 07:10:27;;;;;;;15.40;6.00;;;;;;;21.32;65.26;100555.45;110075;1275;22343;-60
2023/07/10 07:12:58;;;;;;;16.70;5.40;;;;;;;21.37;65.15;100554.21;110088;1272;22233;-60
2023/07/10 07:15:29;;;;;;;13.00;5.70;;;;;;;21.43;64.91;100556.63;110067;1266;22336;-60
2023/07/10 07:18:00;;;;;;;14.00;6.70;;;;;;;21.51;65.03;100558.94;110092;1277;22678;-60
2023/07/10 07:20:32;;;;;;;14.20;5.90;;;;;;;21.60;65.11;100559.89;110071;1278;22344;-60
2023/07/10 07:23:03;;;;;;;14.00;5.80;;;;;;;21.67;64.87;100549.03;110078;1279;22157;-60
2023/07/10 07:25:34;;;;;;;13.80;5.50;;;;;;;21.75;64.97;100547.36;110107;1279;22258;-60
2023/07/10 07:28:05;;;;;;;15.60;6.00;;;;;;;21.83;64.89;100547.36;110118;1272;22437;-60
2023/07/10 07:30:36;;;;;;;17.20;7.10;;;;;;;21.92;64.75;100548.15;110098;1272;22276;-60
2023/07/10 07:33:07;;;;;;;16.30;5.70;;;;;;;22.04;64.85;100548.88;110125;1272;22244;-60
2023/07/10 07:35:39;;;;;;;16.60;5.20;;;;;;;22.18;64.56;100545.34;110151;1272;22938;-60
2023/07/10 07:38:10;;;;;;;16.20;5.80;;;;;;;22.29;64.11;100547.09;110162;1273;22161;-60
2023/07/10 07:40:41;;;;;;;18.10;6.90;;;;;;;22.39;63.92;100545.75;110142;1273;23030;-60
2023/07/10 07:43:12;;;;;;;16.70;5.50;;;;;;;22.49;63.79;100541.22;110180;1275;22700;-60
2023/07/10 07:45:52;;;;;;;14.30;5.10;;;;;;;22.60;63.79;100539.32;110094;1273;22147;-62
2023/07/10 07:48:21;;;;;;;;;;;;;;;22.76;63.98;100532.48;110138;1276;22329;-62
2023/07/10 07:51:03;;;;;;;12.30;5.10;;;;;;;22.90;63.65;100532.17;110103;1272;22066;-62
2023/07/10 07:53:36;;;;;;;14.10;5.70;;;;;;;23.06;63.48;100529.25;110120;1272;22327;-62
2023/07/10 07:56:07;;;;;;;16.10;5.70;;;;;;;23.20;62.90;100532.64;110137;1276;22579;-64
2023/07/10 07:58:39;;;;;;;14.90;5.60;;;;;;;23.36;62.86;100531.85;110166;1279;22977;-62
2023/07/10 08:01:10;;;;;;;13.20;5.30;;;;;;;23.49;62.59;100520.97;110155;1272;22959;-61
2023/07/10 08:03:41;;;;;;;12.50;4.90;;;;;;;23.61;62.27;100521.50;110125;1271;22958;-63
2023/07/10 08:06:12;;;;;;;15.10;5.80;;;;;;;23.74;62.03;100515.38;110140;1260;22913;-63
2023/07/10 08:08:43;;;;;;;11.40;4.20;;;;;;;23.87;62.22;100512.96;110130;1267;22217;-63
2023/07/10 08:11:16;;;;;;;15.70;5.80;;;;;;;24.01;61.96;100514.34;110150;1272;22789;-63
2023/07/10 08:13:47;;;;;;;16.30;5.90;;;;;;;24.16;61.74;100513.63;110124;1272;23013;-62
2023/07/10 08:16:19;;;;;;;12.70;4.60;;;;;;;24.25;61.10;100517.06;110071;1266;23042;-63
2023/07/10 08:18:50;;;;;;;17.20;5.70;;;;;;;24.29;60.90;100518.91;110155;1277;23023;-62
2023/07/10 08:21:21;;;;;;;13.80;5.10;;;;;;;24.40;60.26;100519.63;110161;1272;22138;-64
2023/07/10 08:23:52;;;;;;;17.60;5.40;;;;;;;24.48;60.11;100518.16;110143;1273;22283;-62
2023/07/10 08:26:44;;;;;;;16.60;5.10;;;;;;;24.62;59.88;100515.35;110097;1273;22977;-61
2023/07/10 08:29:27;;;;;;;11.90;5.00;;;;;;;24.76;59.68;100513.70;110121;1272;23148;-62
2023/07/10 08:31:59;;;;;;;16.40;5.30;;;;;;;24.91;59.53;100512.70;110153;1275;22167;-61
2023/07/10 08:34:32;;;;;;;13.60;4.60;;;;;;;25.09;59.32;100515.52;110180;1272;22128;-62
2023/07/10 08:37:03;;;;;;;13.30;4.80;;;;;;;25.25;58.82;100516.22;110159;1273;22297;-62
2023/07/10 08:39:33;;;;;;;15.60;5.00;;;;;;;25.36;58.12;100513.43;110105;1275;22130;-62
2023/07/10 08:42:12;;;;;;;12.40;4.60;;;;;;;25.47;58.05;100522.05;110141;1272;22920;-65
2023/07/10 08:44:43;;;;;;;13.30;4.80;;;;;;;25.63;57.80;100521.61;110147;1272;22927;-62
2023/07/10 08:47:20;;;;;;;11.90;4.20;;;;;;;25.74;56.95;100519.91;110128;1273;22989;-63
2023/07/10 08:49:54;;;;;;;12.50;4.30;;;;;;;25.84;56.91;100524.91;110108;1279;22359;-62
2023/07/10 08:52:38;;;;;;;11.20;3.40;;;;;;;25.94;56.36;100526.73;110070;1275;22928;-63
2023/07/10 08:55:13;;;;;;;15.60;5.00;;;;;;;26.07;56.16;100534.33;110110;1278;22400;-62
2023/07/10 08:57:49;;;;;;;11.00;4.00;;;;;;;26.17;55.62;100535.05;110049;1273;22180;-64
2023/07/10 09:00:22;;;;;;;13.10;4.40;;;;;;;26.23;55.20;100540.85;110138;1273;22875;-63
2023/07/10 09:02:59;;;;;;;10.10;3.60;;;;;;;26.27;54.94;100541.55;110111;1275;22154;-64
2023/07/10 09:05:33;;;;;;;9.80;4.00;;;;;;;26.29;54.52;100540.16;110099;1272;22165;-63
2023/07/10 09:08:06;;;;;;;12.20;3.70;;;;;;;26.30;54.49;100546.52;110126;1272;22393;-62
2023/07/10 09:10:41;;;;;;;11.00;3.70;;;;;;;26.32;53.99;100549.45;110136;1279;22942;-62
2023/07/10 09:13:17;;;;;;;10.70;3.60;;;;;;;26.37;53.52;100555.45;110122;1275;22158;-62
2023/07/10 09:15:52;;;;;;;11.60;3.70;;;;;;;26.39;53.24;100554.23;110123;1269;22186;-62
2023/07/10 09:18:35;;;;;;;11.90;3.90;;;;;;;26.43;53.09;100556.02;110064;1272;22268;-62
2023/07/10 09:21:16;;;;;;;11.70;3.40;;;;;;;26.49;53.07;100560.23;110106;1275;22282;-63
2023/07/10 09:23:48;;;;;;;12.60;3.10;;;;;;;26.56;52.53;100567.81;110095;1272;22994;-62
2023/07/10 09:26:22;;;;;;;13.00;3.10;;;;;;;26.59;52.07;100579.81;110100;1273;23122;-62
2023/07/10 09:29:07;;;;;;;13.50;3.20;;;;;;;26.55;51.71;100591.06;110125;1279;22489;-62
2023/07/10 09:31:49;;;;;;;16.10;3.70;;;;;;;26.53;51.65;100602.62;110120;1276;22134;-64
2023/07/10 09:34:23;;;;;;;14.20;3.40;;;;;;;26.50;51.77;100600.65;110129;1276;22949;-62
2023/07/10 09:36:56;;;;;;;13.00;3.30;;;;;;;26.50;52.02;100600.53;110108;1272;22845;-62
2023/07/10 09:39:29;;;;;;;9.50;3.10;;;;;;;26.50;51.81;100601.34;110070;1278;22110;-62
2023/07/10 09:42:02;;;;;;;18.30;3.90;;;;;;;26.45;51.39;100598.95;110094;1278;22233;-62
2023/07/10 09:44:37;;;;;;;17.40;3.00;;;;;;;26.41;51.57;100597.06;110092;1273;22472;-63
2023/07/10 09:47:12;;;;;;;12.40;3.30;;;;;;;26.38;51.58;100597.35;110112;1269;22198;-64
2023/07/10 09:49:47;;;;;;;8.70;2.70;;;;;;;26.36;51.35;100599.85;110114;1276;22221;-63
2023/07/10 09:52:26;;;;;;;12.90;3.10;;;;;;;26.34;50.94;100597.95;110126;1273;22227;-63
2023/07/10 09:55:12;;;;;;;10.00;2.70;;;;;;;26.27;50.03;100596.73;110122;1273;22202;-62
2023/07/10 09:57:55;;;;;;;13.00;2.90;;;;;;;26.17;49.47;100592.21;110120;1272;22314;-63
2023/07/10 10:00:26;;;;;;;16.20;2.90;;;;;;;26.11;49.30;100595.67;110103;1266;22140;-62
2023/07/10 10:03:02;;;;;;;12.80;3.00;;;;;;;26.08;49.27;100588.63;110102;1272;22294;-61
2023/07/10 10:05:33;;;;;;;13.70;3.30;;;;;;;26.07;49.13;100582.90;110133;1275;22171;-60
2023/07/10 10:08:26;;;;;;;14.20;3.20;;;;;;;26.03;48.74;100573.86;110124;1279;22338;-61
2023/07/10 10:11:06;;;;;;;10.90;2.20;;;;;;;26.00;48.14;100571.44;110032;1274;22386;-61
2023/07/10 10:13:40;;;;;;;9.80;2.50;;;;;;;25.94;47.64;100571.61;110075;1275;22401;-61
2023/07/10 10:16:21;;;;;;;12.50;2.90;;;;;;;25.87;47.27;100564.78;110113;1272;22973;-61
2023/07/10 10:18:57;;;;;;;13.20;3.10;;;;;;;25.79;47.28;100556.20;110064;1272;22356;-60
2023/07/10 10:21:31;;;;;;;14.60;2.90;;;;;;;25.74;47.31;100553.92;110101;1272;22228;-61
2023/07/10 10:24:07;;;;;;;10.60;2.70;;;;;;;25.75;47.43;100535.08;110068;1277;22437;-66
2023/07/10 10:26:53;;;;;;;7.50;2.20;;;;;;;25.77;47.39;100512.97;110071;1265;23310;-61
2023/07/10 10:29:56;;;;;;;10.10;3.50;;;;;;;25.78;47.53;100483.87;110116;1266;22914;-60
2023/07/10 10:32:39;;;;;;;15.40;3.90;;;;;;;25.79;47.62;100423.27;110096;1272;22202;-61
2023/07/10 10:35:21;;;;;;;11.20;3.00;;;;;;;25.81;47.81;100403.39;110121;1273;22390;-61
2023/07/10 10:38:03;;;;;;;11.80;3.20;;;;;;;25.80;48.49;100398.45;110131;1279;22894;-60
2023/07/10 10:40:41;;;;;;;13.40;3.30;;;;;;;25.79;49.38;100380.48;110152;1279;22918;-60
2023/07/10 10:43:42;;;;;;;15.30;2.90;;;;;;;25.75;49.80;100358.86;110141;1275;22168;-60
2023/07/10 10:46:35;;;;;;;16.40;3.40;;;;;;;25.70;50.02;100361.48;110121;1272;22240;-60
2023/07/10 10:49:24;;;;;;;11.30;3.30;;;;;;;25.70;50.25;100370.13;110126;1277;23237;-61
2023/07/10 10:52:06;;;;;;;15.00;3.20;;;;;;;25.78;50.59;100372.80;110121;1272;22642;-61
2023/07/10 10:54:48;;;;;;;10.90;2.60;;;;;;;25.89;50.81;100381.25;110126;1279;22442;-63
2023/07/10 10:57:36;;;;;;;21.50;3.30;;;;;;;26.02;50.78;100395.70;110128;1274;22887;-63
2023/07/10 11:00:24;;;;;;;18.60;4.20;;;;;;;26.14;51.04;100407.22;109983;1277;23070;-62
2023/07/10 11:03:15;;;;;;;18.70;3.20;;;;;;;26.26;50.90;100416.92;109998;1278;22270;-61
2023/07/10 11:05:50;;;;;;;10.60;3.60;;;;;;;26.37;50.75;100428.77;110112;1268;22165;-62
2023/07/10 11:08:24;;;;;;;15.10;3.20;;;;;;;26.43;50.53;100438.46;110113;1273;22141;-62
2023/07/10 11:10:57;;;;;;;12.90;3.30;;;;;;;26.47;50.33;100440.98;110157;1273;22932;-63
2023/07/10 11:13:34;;;;;;;17.10;3.90;;;;;;;26.51;49.95;100447.86;110063;1276;22354;-63
2023/07/10 11:16:07;;;;;;;14.40;3.50;;;;;;;26.55;49.87;100452.45;110131;1273;22319;-62
2023/07/10 11:18:39;;;;;;;13.70;3.20;;;;;;;26.66;49.99;100447.80;110150;1275;22318;-63
2023/07/10 11:21:10;;;;;;;14.20;3.60;;;;;;;26.80;49.92;100448.67;110124;1273;22123;-62
2023/07/10 11:23:49;;;;;;;12.00;3.30;;;;;;;26.95;49.41;100447.65;110146;1275;22150;-64
2023/07/10 11:26:23;;;;;;;12.90;3.60;;;;;;;27.04;49.02;100438.91;110022;1273;22950;-63
2023/07/10 11:28:56;;;;;;;11.30;3.10;;;;;;;27.11;48.70;100430.32;110145;1279;22963;-61
2023/07/10 11:31:37;;;;;;;10.80;3.50;;;;;;;27.16;48.17;100422.31;110137;1276;22292;-61
2023/07/10 11:34:42;;;;;;;17.30;3.90;;;;;;;27.26;48.37;100416.98;110132;1273;22381;-61
2023/07/10 11:37:40;;;;;;;9.70;2.80;;;;;;;27.41;47.74;100408.38;110158;1273;22233;-61
2023/07/10 11:40:48;;;;;;;12.20;3.10;;;;;;;27.53;47.46;100407.72;110141;1269;22235;-60